sensor_id;sensor_type;location;lat;lon;timestamp;P1;durP1;ratioP1;P2;durP2;ratioP2
13891;SDS011;7016;48.172;8.058;2022-08-25T00:02:14;3.78;;;2.58;;
13891;SDS011;7016;48.172;8.058;2022-08-25T00:04:40;3.45;;;2.40;;
13891;SDS011;7016;48.172;8.058;2022-08-25T00:07:05;13.10;;;2.53;;
13891;SDS011;7016;48.172;8.058;2022-08-25T00:09:32;2.97;;;2.30;;
13891;SDS011;7016;48.172;8.058;2022-08-25T00:11:59;2.40;;;2.15;;
13891;SDS011;7016;48.172;8.058;2022-08-25T00:14:26;5.63;;;2.70;;
13891;SDS011;7016;48.172;8.058;2022-08-25T00:16:57;4.32;;;2.40;;
13891;SDS011;7016;48.172;8.058;2022-08-25T00:19:24;3.63;;;2.72;;
13891;SDS011;7016;48.172;8.058;2022-08-25T00:21:53;3.40;;;2.60;;
13891;SDS011;7016;48.172;8.058;2022-08-25T00:24:19;3.42;;;2.50;;
13891;SDS011;7016;48.172;8.058;2022-08-25T00:26:47;6.28;;;2.58;;
13891;SDS011;7016;48.172;8.058;2022-08-25T00:29:15;4.00;;;2.80;;
13891;SDS011;7016;48.172;8.058;2022-08-25T00:31:42;4.30;;;3.10;;
13891;SDS011;7016;48.172;8.058;2022-08-25T00:34:11;5.22;;;2.15;;
13891;SDS011;7016;48.172;8.058;2022-08-25T00:36:43;4.00;;;2.45;;
13891;SDS011;7016;48.172;8.058;2022-08-25T00:39:11;5.13;;;2.40;;
13891;SDS011;7016;48.172;8.058;2022-08-25T00:41:38;6.10;;;2.65;;
13891;SDS011;7016;48.172;8.058;2022-08-25T00:44:07;2.53;;;2.30;;
13891;SDS011;7016;48.172;8.058;2022-08-25T00:46:39;8.65;;;2.83;;
13891;SDS011;7016;48.172;8.058;2022-08-25T00:49:18;3.22;;;2.50;;
13891;SDS011;7016;48.172;8.058;2022-08-25T00:51:51;4.93;;;2.70;;
13891;SDS011;7016;48.172;8.058;2022-08-25T00:54:26;3.05;;;2.70;;
13891;SDS011;7016;48.172;8.058;2022-08-25T00:56:55;6.50;;;2.95;;
13891;SDS011;7016;48.172;8.058;2022-08-25T00:59:22;3.65;;;2.58;;
13891;SDS011;7016;48.172;8.058;2022-08-25T01:01:50;4.30;;;2.88;;
13891;SDS011;7016;48.172;8.058;2022-08-25T01:04:18;4.70;;;2.67;;
13891;SDS011;7016;48.172;8.058;2022-08-25T01:06:43;3.65;;;2.42;;
13891;SDS011;7016;48.172;8.058;2022-08-25T01:09:11;4.25;;;2.85;;
13891;SDS011;7016;48.172;8.058;2022-08-25T01:11:41;4.55;;;2.70;;
13891;SDS011;7016;48.172;8.058;2022-08-25T01:14:08;5.03;;;2.85;;
13891;SDS011;7016;48.172;8.058;2022-08-25T01:16:37;5.18;;;2.90;;
13891;SDS011;7016;48.172;8.058;2022-08-25T01:19:04;3.20;;;2.63;;
13891;SDS011;7016;48.172;8.058;2022-08-25T01:21:36;3.35;;;2.65;;
13891;SDS011;7016;48.172;8.058;2022-08-25T01:24:06;3.88;;;2.67;;
13891;SDS011;7016;48.172;8.058;2022-08-25T01:26:35;3.17;;;2.42;;
13891;SDS011;7016;48.172;8.058;2022-08-25T01:29:04;4.10;;;2.58;;
13891;SDS011;7016;48.172;8.058;2022-08-25T01:31:50;6.22;;;2.80;;
13891;SDS011;7016;48.172;8.058;2022-08-25T01:34:22;3.20;;;2.50;;
13891;SDS011;7016;48.172;8.058;2022-08-25T01:36:50;5.60;;;2.85;;
13891;SDS011;7016;48.172;8.058;2022-08-25T01:39:16;3.15;;;2.83;;
13891;SDS011;7016;48.172;8.058;2022-08-25T01:44:39;3.30;;;2.60;;
13891;SDS011;7016;48.172;8.058;2022-08-25T01:47:08;3.38;;;2.47;;
13891;SDS011;7016;48.172;8.058;2022-08-25T01:49:34;5.30;;;3.03;;
13891;SDS011;7016;48.172;8.058;2022-08-25T01:52:19;3.10;;;2.80;;
13891;SDS011;7016;48.172;8.058;2022-08-25T01:54:48;3.35;;;2.70;;
13891;SDS011;7016;48.172;8.058;2022-08-25T01:57:14;4.93;;;3.28;;
13891;SDS011;7016;48.172;8.058;2022-08-25T01:59:40;4.28;;;3.22;;
13891;SDS011;7016;48.172;8.058;2022-08-25T02:02:07;5.70;;;3.05;;
13891;SDS011;7016;48.172;8.058;2022-08-25T02:04:33;5.88;;;2.92;;
13891;SDS011;7016;48.172;8.058;2022-08-25T02:06:59;4.25;;;2.90;;
13891;SDS011;7016;48.172;8.058;2022-08-25T02:09:27;4.10;;;2.72;;
13891;SDS011;7016;48.172;8.058;2022-08-25T02:11:53;3.08;;;2.78;;
13891;SDS011;7016;48.172;8.058;2022-08-25T02:14:21;7.70;;;3.20;;
13891;SDS011;7016;48.172;8.058;2022-08-25T02:16:50;3.53;;;2.72;;
13891;SDS011;7016;48.172;8.058;2022-08-25T02:19:18;3.55;;;2.70;;
13891;SDS011;7016;48.172;8.058;2022-08-25T02:21:44;3.92;;;2.70;;
13891;SDS011;7016;48.172;8.058;2022-08-25T02:24:10;5.07;;;3.00;;
13891;SDS011;7016;48.172;8.058;2022-08-25T02:26:37;8.10;;;2.92;;
13891;SDS011;7016;48.172;8.058;2022-08-25T02:29:03;3.13;;;2.70;;
13891;SDS011;7016;48.172;8.058;2022-08-25T02:31:30;4.90;;;2.83;;
13891;SDS011;7016;48.172;8.058;2022-08-25T02:33:57;3.72;;;2.70;;
13891;SDS011;7016;48.172;8.058;2022-08-25T02:36:23;5.20;;;2.80;;
13891;SDS011;7016;48.172;8.058;2022-08-25T02:38:49;4.15;;;2.90;;
13891;SDS011;7016;48.172;8.058;2022-08-25T02:41:16;4.50;;;2.75;;
13891;SDS011;7016;48.172;8.058;2022-08-25T02:43:44;3.90;;;2.70;;
13891;SDS011;7016;48.172;8.058;2022-08-25T02:46:13;3.50;;;2.58;;
13891;SDS011;7016;48.172;8.058;2022-08-25T02:48:40;2.85;;;2.50;;
13891;SDS011;7016;48.172;8.058;2022-08-25T02:51:06;4.40;;;2.83;;
13891;SDS011;7016;48.172;8.058;2022-08-25T02:53:33;4.13;;;2.75;;
13891;SDS011;7016;48.172;8.058;2022-08-25T02:56:04;3.53;;;3.00;;
13891;SDS011;7016;48.172;8.058;2022-08-25T02:58:34;4.32;;;3.35;;
13891;SDS011;7016;48.172;8.058;2022-08-25T03:01:01;4.30;;;3.28;;
13891;SDS011;7016;48.172;8.058;2022-08-25T03:03:27;5.85;;;2.90;;
13891;SDS011;7016;48.172;8.058;2022-08-25T03:05:53;4.30;;;2.95;;
13891;SDS011;7016;48.172;8.058;2022-08-25T03:08:20;4.32;;;2.72;;
13891;SDS011;7016;48.172;8.058;2022-08-25T03:10:46;4.70;;;3.08;;
13891;SDS011;7016;48.172;8.058;2022-08-25T03:13:12;6.53;;;2.92;;
13891;SDS011;7016;48.172;8.058;2022-08-25T03:15:37;3.28;;;2.92;;
13891;SDS011;7016;48.172;8.058;2022-08-25T03:18:05;4.72;;;2.90;;
13891;SDS011;7016;48.172;8.058;2022-08-25T03:20:31;5.65;;;2.72;;
13891;SDS011;7016;48.172;8.058;2022-08-25T03:22:59;4.68;;;3.25;;
13891;SDS011;7016;48.172;8.058;2022-08-25T03:25:26;5.63;;;2.92;;
13891;SDS011;7016;48.172;8.058;2022-08-25T03:28:11;5.72;;;3.22;;
13891;SDS011;7016;48.172;8.058;2022-08-25T03:30:40;4.60;;;3.10;;
13891;SDS011;7016;48.172;8.058;2022-08-25T03:33:07;6.93;;;2.88;;
13891;SDS011;7016;48.172;8.058;2022-08-25T03:35:33;5.65;;;3.67;;
13891;SDS011;7016;48.172;8.058;2022-08-25T03:37:59;4.82;;;3.38;;
13891;SDS011;7016;48.172;8.058;2022-08-25T03:40:25;5.13;;;3.03;;
13891;SDS011;7016;48.172;8.058;2022-08-25T03:42:52;7.43;;;3.60;;
13891;SDS011;7016;48.172;8.058;2022-08-25T03:45:21;4.55;;;3.55;;
13891;SDS011;7016;48.172;8.058;2022-08-25T03:47:49;4.93;;;3.28;;
13891;SDS011;7016;48.172;8.058;2022-08-25T03:50:16;4.18;;;3.05;;
13891;SDS011;7016;48.172;8.058;2022-08-25T03:52:43;4.88;;;3.28;;
13891;SDS011;7016;48.172;8.058;2022-08-25T03:55:11;6.05;;;3.30;;
13891;SDS011;7016;48.172;8.058;2022-08-25T03:57:38;3.35;;;2.92;;
13891;SDS011;7016;48.172;8.058;2022-08-25T04:00:05;4.18;;;3.72;;
13891;SDS011;7016;48.172;8.058;2022-08-25T04:02:32;6.03;;;3.30;;
13891;SDS011;7016;48.172;8.058;2022-08-25T04:04:58;6.82;;;3.45;;
13891;SDS011;7016;48.172;8.058;2022-08-25T04:07:24;5.18;;;3.40;;
13891;SDS011;7016;48.172;8.058;2022-08-25T04:09:52;4.20;;;3.20;;
13891;SDS011;7016;48.172;8.058;2022-08-25T04:12:18;5.65;;;3.22;;
13891;SDS011;7016;48.172;8.058;2022-08-25T04:14:44;4.47;;;3.15;;
13891;SDS011;7016;48.172;8.058;2022-08-25T04:17:10;5.38;;;3.10;;
13891;SDS011;7016;48.172;8.058;2022-08-25T04:19:35;4.28;;;3.40;;
13891;SDS011;7016;48.172;8.058;2022-08-25T04:22:02;4.18;;;3.25;;
13891;SDS011;7016;48.172;8.058;2022-08-25T04:24:28;4.15;;;3.28;;
13891;SDS011;7016;48.172;8.058;2022-08-25T04:26:54;6.13;;;3.80;;
13891;SDS011;7016;48.172;8.058;2022-08-25T04:29:21;7.57;;;3.72;;
13891;SDS011;7016;48.172;8.058;2022-08-25T04:31:48;3.60;;;3.03;;
13891;SDS011;7016;48.172;8.058;2022-08-25T04:34:17;3.78;;;3.15;;
13891;SDS011;7016;48.172;8.058;2022-08-25T04:36:44;6.00;;;3.25;;
13891;SDS011;7016;48.172;8.058;2022-08-25T04:39:11;5.15;;;3.28;;
13891;SDS011;7016;48.172;8.058;2022-08-25T04:41:37;6.22;;;3.22;;
13891;SDS011;7016;48.172;8.058;2022-08-25T04:44:03;4.25;;;3.10;;
13891;SDS011;7016;48.172;8.058;2022-08-25T04:46:31;5.00;;;3.38;;
13891;SDS011;7016;48.172;8.058;2022-08-25T04:48:59;4.50;;;3.45;;
13891;SDS011;7016;48.172;8.058;2022-08-25T04:51:27;5.63;;;3.17;;
13891;SDS011;7016;48.172;8.058;2022-08-25T04:53:57;5.57;;;3.60;;
13891;SDS011;7016;48.172;8.058;2022-08-25T04:56:25;4.72;;;3.67;;
13891;SDS011;7016;48.172;8.058;2022-08-25T04:58:52;6.60;;;3.17;;
13891;SDS011;7016;48.172;8.058;2022-08-25T05:01:19;5.40;;;3.28;;
13891;SDS011;7016;48.172;8.058;2022-08-25T05:03:51;4.07;;;3.22;;
13891;SDS011;7016;48.172;8.058;2022-08-25T05:06:19;3.97;;;3.03;;
13891;SDS011;7016;48.172;8.058;2022-08-25T05:08:45;6.45;;;3.70;;
13891;SDS011;7016;48.172;8.058;2022-08-25T05:11:11;6.63;;;3.45;;
13891;SDS011;7016;48.172;8.058;2022-08-25T05:13:39;4.13;;;3.25;;
13891;SDS011;7016;48.172;8.058;2022-08-25T05:16:07;5.00;;;3.50;;
13891;SDS011;7016;48.172;8.058;2022-08-25T05:18:33;6.72;;;3.28;;
13891;SDS011;7016;48.172;8.058;2022-08-25T05:21:03;5.75;;;3.50;;
13891;SDS011;7016;48.172;8.058;2022-08-25T05:23:35;3.78;;;3.03;;
13891;SDS011;7016;48.172;8.058;2022-08-25T05:26:03;4.07;;;3.17;;
13891;SDS011;7016;48.172;8.058;2022-08-25T05:28:30;4.07;;;3.40;;
13891;SDS011;7016;48.172;8.058;2022-08-25T05:30:57;4.03;;;3.45;;
13891;SDS011;7016;48.172;8.058;2022-08-25T05:33:24;4.40;;;3.42;;
13891;SDS011;7016;48.172;8.058;2022-08-25T05:35:51;5.38;;;3.50;;
13891;SDS011;7016;48.172;8.058;2022-08-25T05:38:17;5.80;;;3.97;;
13891;SDS011;7016;48.172;8.058;2022-08-25T05:40:42;6.18;;;3.45;;
13891;SDS011;7016;48.172;8.058;2022-08-25T05:43:08;5.15;;;3.67;;
13891;SDS011;7016;48.172;8.058;2022-08-25T05:45:34;6.85;;;3.78;;
13891;SDS011;7016;48.172;8.058;2022-08-25T05:48:00;5.93;;;4.07;;
13891;SDS011;7016;48.172;8.058;2022-08-25T05:50:26;6.47;;;4.03;;
13891;SDS011;7016;48.172;8.058;2022-08-25T05:52:52;5.78;;;3.90;;
13891;SDS011;7016;48.172;8.058;2022-08-25T05:55:18;6.25;;;4.00;;
13891;SDS011;7016;48.172;8.058;2022-08-25T05:57:44;7.88;;;4.28;;
13891;SDS011;7016;48.172;8.058;2022-08-25T06:00:10;9.02;;;4.82;;
13891;SDS011;7016;48.172;8.058;2022-08-25T06:02:36;6.30;;;4.80;;
13891;SDS011;7016;48.172;8.058;2022-08-25T06:05:12;5.47;;;4.57;;
13891;SDS011;7016;48.172;8.058;2022-08-25T06:07:38;6.80;;;4.20;;
13891;SDS011;7016;48.172;8.058;2022-08-25T06:10:05;4.97;;;3.75;;
13891;SDS011;7016;48.172;8.058;2022-08-25T06:12:34;6.60;;;3.85;;
13891;SDS011;7016;48.172;8.058;2022-08-25T06:15:00;10.20;;;4.30;;
13891;SDS011;7016;48.172;8.058;2022-08-25T06:17:27;7.18;;;4.03;;
13891;SDS011;7016;48.172;8.058;2022-08-25T06:19:53;5.65;;;3.92;;
13891;SDS011;7016;48.172;8.058;2022-08-25T06:22:19;5.32;;;3.58;;
13891;SDS011;7016;48.172;8.058;2022-08-25T06:24:46;6.28;;;4.05;;
13891;SDS011;7016;48.172;8.058;2022-08-25T06:27:12;7.50;;;4.75;;
13891;SDS011;7016;48.172;8.058;2022-08-25T06:29:37;8.32;;;4.28;;
13891;SDS011;7016;48.172;8.058;2022-08-25T06:32:03;6.05;;;4.45;;
13891;SDS011;7016;48.172;8.058;2022-08-25T06:34:29;4.65;;;3.72;;
13891;SDS011;7016;48.172;8.058;2022-08-25T06:36:55;6.68;;;4.50;;
13891;SDS011;7016;48.172;8.058;2022-08-25T06:39:21;6.90;;;5.30;;
13891;SDS011;7016;48.172;8.058;2022-08-25T06:41:52;8.52;;;6.00;;
13891;SDS011;7016;48.172;8.058;2022-08-25T06:44:19;7.10;;;4.47;;
13891;SDS011;7016;48.172;8.058;2022-08-25T06:46:45;6.60;;;4.40;;
13891;SDS011;7016;48.172;8.058;2022-08-25T06:49:11;9.30;;;4.80;;
13891;SDS011;7016;48.172;8.058;2022-08-25T06:51:37;9.57;;;4.63;;
13891;SDS011;7016;48.172;8.058;2022-08-25T06:54:06;6.63;;;4.38;;
13891;SDS011;7016;48.172;8.058;2022-08-25T06:56:34;4.97;;;3.88;;
13891;SDS011;7016;48.172;8.058;2022-08-25T06:59:01;10.43;;;4.05;;
13891;SDS011;7016;48.172;8.058;2022-08-25T07:01:28;6.88;;;4.07;;
13891;SDS011;7016;48.172;8.058;2022-08-25T07:03:56;6.55;;;4.60;;
13891;SDS011;7016;48.172;8.058;2022-08-25T07:06:24;5.97;;;4.57;;
13891;SDS011;7016;48.172;8.058;2022-08-25T07:08:52;5.45;;;4.28;;
13891;SDS011;7016;48.172;8.058;2022-08-25T07:11:17;8.30;;;5.32;;
13891;SDS011;7016;48.172;8.058;2022-08-25T07:13:46;8.55;;;4.47;;
13891;SDS011;7016;48.172;8.058;2022-08-25T07:16:13;5.78;;;4.40;;
13891;SDS011;7016;48.172;8.058;2022-08-25T07:18:40;7.10;;;4.53;;
13891;SDS011;7016;48.172;8.058;2022-08-25T07:21:06;10.50;;;5.60;;
13891;SDS011;7016;48.172;8.058;2022-08-25T07:23:32;8.82;;;4.85;;
13891;SDS011;7016;48.172;8.058;2022-08-25T07:26:05;6.00;;;4.70;;
13891;SDS011;7016;48.172;8.058;2022-08-25T07:28:42;8.38;;;4.60;;
13891;SDS011;7016;48.172;8.058;2022-08-25T07:31:09;8.35;;;4.88;;
13891;SDS011;7016;48.172;8.058;2022-08-25T07:33:35;7.45;;;4.50;;
13891;SDS011;7016;48.172;8.058;2022-08-25T07:36:01;6.97;;;4.80;;
13891;SDS011;7016;48.172;8.058;2022-08-25T07:38:27;4.97;;;3.78;;
13891;SDS011;7016;48.172;8.058;2022-08-25T07:40:59;8.98;;;3.90;;
13891;SDS011;7016;48.172;8.058;2022-08-25T07:43:26;5.93;;;3.72;;
13891;SDS011;7016;48.172;8.058;2022-08-25T07:45:52;5.70;;;3.30;;
13891;SDS011;7016;48.172;8.058;2022-08-25T07:48:18;5.30;;;3.38;;
13891;SDS011;7016;48.172;8.058;2022-08-25T07:50:45;5.82;;;3.00;;
13891;SDS011;7016;48.172;8.058;2022-08-25T07:53:13;5.68;;;2.95;;
13891;SDS011;7016;48.172;8.058;2022-08-25T07:55:41;5.65;;;3.13;;
13891;SDS011;7016;48.172;8.058;2022-08-25T07:58:08;5.65;;;3.00;;
13891;SDS011;7016;48.172;8.058;2022-08-25T08:00:35;4.45;;;2.80;;
13891;SDS011;7016;48.172;8.058;2022-08-25T08:03:03;4.13;;;2.97;;
13891;SDS011;7016;48.172;8.058;2022-08-25T08:05:30;4.05;;;2.70;;
13891;SDS011;7016;48.172;8.058;2022-08-25T08:07:56;3.33;;;2.60;;
13891;SDS011;7016;48.172;8.058;2022-08-25T08:10:23;4.55;;;2.55;;
13891;SDS011;7016;48.172;8.058;2022-08-25T08:12:50;4.50;;;2.70;;
13891;SDS011;7016;48.172;8.058;2022-08-25T08:15:16;4.60;;;2.40;;
13891;SDS011;7016;48.172;8.058;2022-08-25T08:17:43;4.93;;;3.20;;
13891;SDS011;7016;48.172;8.058;2022-08-25T08:20:10;7.38;;;3.30;;
13891;SDS011;7016;48.172;8.058;2022-08-25T08:22:38;5.30;;;3.10;;
13891;SDS011;7016;48.172;8.058;2022-08-25T08:25:05;2.85;;;2.30;;
13891;SDS011;7016;48.172;8.058;2022-08-25T08:27:32;3.22;;;2.42;;
13891;SDS011;7016;48.172;8.058;2022-08-25T08:29:59;2.70;;;2.10;;
13891;SDS011;7016;48.172;8.058;2022-08-25T08:32:25;3.03;;;2.08;;
13891;SDS011;7016;48.172;8.058;2022-08-25T08:34:51;5.10;;;2.33;;
13891;SDS011;7016;48.172;8.058;2022-08-25T08:37:17;5.05;;;2.30;;
13891;SDS011;7016;48.172;8.058;2022-08-25T08:39:43;3.22;;;1.98;;
13891;SDS011;7016;48.172;8.058;2022-08-25T08:55:38;3.45;;;2.03;;
13891;SDS011;7016;48.172;8.058;2022-08-25T08:58:18;2.67;;;1.90;;
13891;SDS011;7016;48.172;8.058;2022-08-25T09:00:47;2.55;;;2.17;;
13891;SDS011;7016;48.172;8.058;2022-08-25T09:06:01;4.77;;;2.47;;
13891;SDS011;7016;48.172;8.058;2022-08-25T09:08:30;2.35;;;2.08;;
13891;SDS011;7016;48.172;8.058;2022-08-25T09:11:09;5.78;;;2.50;;
13891;SDS011;7016;48.172;8.058;2022-08-25T09:14:07;4.15;;;2.35;;
13891;SDS011;7016;48.172;8.058;2022-08-25T09:22:44;4.78;;;2.53;;
13891;SDS011;7016;48.172;8.058;2022-08-25T09:30:22;2.65;;;2.10;;
13891;SDS011;7016;48.172;8.058;2022-08-25T09:32:52;3.03;;;1.90;;
13891;SDS011;7016;48.172;8.058;2022-08-25T09:35:28;4.60;;;2.25;;
13891;SDS011;7016;48.172;8.058;2022-08-25T09:38:04;2.88;;;1.90;;
13891;SDS011;7016;48.172;8.058;2022-08-25T09:40:41;5.38;;;1.73;;
13891;SDS011;7016;48.172;8.058;2022-08-25T09:48:44;3.65;;;1.88;;
13891;SDS011;7016;48.172;8.058;2022-08-25T09:51:23;3.95;;;1.88;;
13891;SDS011;7016;48.172;8.058;2022-08-25T09:53:56;3.13;;;1.88;;
13891;SDS011;7016;48.172;8.058;2022-08-25T09:56:28;8.23;;;2.20;;
13891;SDS011;7016;48.172;8.058;2022-08-25T10:01:50;2.10;;;1.90;;
13891;SDS011;7016;48.172;8.058;2022-08-25T10:06:59;6.47;;;2.22;;
13891;SDS011;7016;48.172;8.058;2022-08-25T10:11:54;3.45;;;2.10;;
13891;SDS011;7016;48.172;8.058;2022-08-25T10:14:26;2.53;;;2.05;;
13891;SDS011;7016;48.172;8.058;2022-08-25T10:16:53;3.75;;;2.10;;
13891;SDS011;7016;48.172;8.058;2022-08-25T10:19:48;2.75;;;2.10;;
13891;SDS011;7016;48.172;8.058;2022-08-25T10:22:22;3.35;;;2.10;;
13891;SDS011;7016;48.172;8.058;2022-08-25T10:24:56;3.63;;;2.08;;
13891;SDS011;7016;48.172;8.058;2022-08-25T10:27:29;2.95;;;2.30;;
13891;SDS011;7016;48.172;8.058;2022-08-25T10:30:20;2.50;;;2.00;;
13891;SDS011;7016;48.172;8.058;2022-08-25T10:38:41;4.28;;;1.85;;
13891;SDS011;7016;48.172;8.058;2022-08-25T10:52:43;2.28;;;2.00;;
13891;SDS011;7016;48.172;8.058;2022-08-25T10:55:48;3.47;;;2.20;;
13891;SDS011;7016;48.172;8.058;2022-08-25T11:04:17;2.67;;;1.98;;
13891;SDS011;7016;48.172;8.058;2022-08-25T11:11:01;4.53;;;2.55;;
13891;SDS011;7016;48.172;8.058;2022-08-25T11:13:23;4.55;;;1.77;;
13891;SDS011;7016;48.172;8.058;2022-08-25T11:16:00;4.05;;;2.00;;
13891;SDS011;7016;48.172;8.058;2022-08-25T11:18:33;5.07;;;1.70;;
13891;SDS011;7016;48.172;8.058;2022-08-25T11:21:05;2.15;;;1.80;;
13891;SDS011;7016;48.172;8.058;2022-08-25T11:26:18;4.30;;;1.90;;
13891;SDS011;7016;48.172;8.058;2022-08-25T11:28:59;2.08;;;1.70;;
13891;SDS011;7016;48.172;8.058;2022-08-25T11:31:44;4.70;;;1.90;;
13891;SDS011;7016;48.172;8.058;2022-08-25T11:34:12;5.03;;;1.90;;
13891;SDS011;7016;48.172;8.058;2022-08-25T11:36:41;2.78;;;2.00;;
13891;SDS011;7016;48.172;8.058;2022-08-25T11:39:15;2.78;;;1.90;;
13891;SDS011;7016;48.172;8.058;2022-08-25T11:50:04;1.90;;;1.70;;
13891;SDS011;7016;48.172;8.058;2022-08-25T11:55:05;2.38;;;1.70;;
13891;SDS011;7016;48.172;8.058;2022-08-25T11:57:39;5.03;;;1.90;;
13891;SDS011;7016;48.172;8.058;2022-08-25T12:02:43;3.33;;;2.03;;
13891;SDS011;7016;48.172;8.058;2022-08-25T12:10:18;4.05;;;1.70;;
13891;SDS011;7016;48.172;8.058;2022-08-25T12:18:12;2.60;;;1.55;;
13891;SDS011;7016;48.172;8.058;2022-08-25T12:23:26;2.30;;;1.90;;
13891;SDS011;7016;48.172;8.058;2022-08-25T12:25:54;2.35;;;1.77;;
13891;SDS011;7016;48.172;8.058;2022-08-25T12:31:22;3.20;;;1.90;;
13891;SDS011;7016;48.172;8.058;2022-08-25T12:36:57;2.70;;;1.83;;
13891;SDS011;7016;48.172;8.058;2022-08-25T12:39:35;1.83;;;1.27;;
13891;SDS011;7016;48.172;8.058;2022-08-25T12:42:11;4.63;;;1.60;;
13891;SDS011;7016;48.172;8.058;2022-08-25T12:45:07;2.45;;;1.70;;
13891;SDS011;7016;48.172;8.058;2022-08-25T12:47:49;2.03;;;1.83;;
13891;SDS011;7016;48.172;8.058;2022-08-25T12:50:25;2.70;;;1.67;;
13891;SDS011;7016;48.172;8.058;2022-08-25T12:53:21;1.75;;;1.60;;
13891;SDS011;7016;48.172;8.058;2022-08-25T12:55:51;2.20;;;1.85;;
13891;SDS011;7016;48.172;8.058;2022-08-25T12:58:27;3.72;;;1.75;;
13891;SDS011;7016;48.172;8.058;2022-08-25T13:01:09;3.28;;;1.70;;
13891;SDS011;7016;48.172;8.058;2022-08-25T13:12:26;2.53;;;1.45;;
13891;SDS011;7016;48.172;8.058;2022-08-25T13:15:04;2.70;;;1.58;;
13891;SDS011;7016;48.172;8.058;2022-08-25T13:17:35;5.15;;;1.52;;
13891;SDS011;7016;48.172;8.058;2022-08-25T13:20:12;1.67;;;1.58;;
13891;SDS011;7016;48.172;8.058;2022-08-25T13:22:42;3.22;;;1.70;;
13891;SDS011;7016;48.172;8.058;2022-08-25T13:25:13;1.50;;;1.40;;
13891;SDS011;7016;48.172;8.058;2022-08-25T13:27:41;1.55;;;1.38;;
13891;SDS011;7016;48.172;8.058;2022-08-25T13:30:30;3.30;;;1.85;;
13891;SDS011;7016;48.172;8.058;2022-08-25T13:35:29;2.72;;;1.30;;
13891;SDS011;7016;48.172;8.058;2022-08-25T13:38:16;1.92;;;1.38;;
13891;SDS011;7016;48.172;8.058;2022-08-25T13:40:43;1.45;;;1.33;;
13891;SDS011;7016;48.172;8.058;2022-08-25T13:43:11;2.92;;;1.42;;
13891;SDS011;7016;48.172;8.058;2022-08-25T13:45:47;2.38;;;1.35;;
13891;SDS011;7016;48.172;8.058;2022-08-25T13:48:14;4.20;;;1.20;;
13891;SDS011;7016;48.172;8.058;2022-08-25T13:51:05;1.98;;;1.33;;
13891;SDS011;7016;48.172;8.058;2022-08-25T13:53:51;3.33;;;1.20;;
13891;SDS011;7016;48.172;8.058;2022-08-25T13:56:27;2.33;;;1.20;;
13891;SDS011;7016;48.172;8.058;2022-08-25T13:58:56;1.20;;;1.10;;
13891;SDS011;7016;48.172;8.058;2022-08-25T14:01:24;1.40;;;1.10;;
13891;SDS011;7016;48.172;8.058;2022-08-25T14:04:18;1.02;;;0.90;;
13891;SDS011;7016;48.172;8.058;2022-08-25T14:09:36;2.47;;;1.23;;
13891;SDS011;7016;48.172;8.058;2022-08-25T14:12:03;1.35;;;1.10;;
13891;SDS011;7016;48.172;8.058;2022-08-25T14:14:31;2.42;;;1.10;;
13891;SDS011;7016;48.172;8.058;2022-08-25T14:19:26;2.03;;;1.17;;
13891;SDS011;7016;48.172;8.058;2022-08-25T14:21:54;1.30;;;1.20;;
13891;SDS011;7016;48.172;8.058;2022-08-25T14:24:26;1.80;;;1.20;;
13891;SDS011;7016;48.172;8.058;2022-08-25T14:26:56;2.78;;;1.50;;
13891;SDS011;7016;48.172;8.058;2022-08-25T14:29:21;2.03;;;1.10;;
13891;SDS011;7016;48.172;8.058;2022-08-25T14:31:47;1.27;;;1.17;;
13891;SDS011;7016;48.172;8.058;2022-08-25T14:34:16;1.90;;;1.20;;
13891;SDS011;7016;48.172;8.058;2022-08-25T14:36:45;2.42;;;1.00;;
13891;SDS011;7016;48.172;8.058;2022-08-25T14:39:12;2.55;;;1.38;;
13891;SDS011;7016;48.172;8.058;2022-08-25T14:41:39;4.90;;;1.10;;
13891;SDS011;7016;48.172;8.058;2022-08-25T14:44:06;1.50;;;1.10;;
13891;SDS011;7016;48.172;8.058;2022-08-25T14:46:37;1.45;;;1.20;;
13891;SDS011;7016;48.172;8.058;2022-08-25T14:49:08;1.30;;;1.20;;
13891;SDS011;7016;48.172;8.058;2022-08-25T14:51:37;2.30;;;1.20;;
13891;SDS011;7016;48.172;8.058;2022-08-25T14:54:06;1.30;;;1.20;;
13891;SDS011;7016;48.172;8.058;2022-08-25T14:56:35;1.80;;;1.23;;
13891;SDS011;7016;48.172;8.058;2022-08-25T14:59:01;1.65;;;1.17;;
13891;SDS011;7016;48.172;8.058;2022-08-25T15:01:27;2.47;;;1.58;;
13891;SDS011;7016;48.172;8.058;2022-08-25T15:03:54;2.15;;;1.40;;
13891;SDS011;7016;48.172;8.058;2022-08-25T15:06:25;4.95;;;1.52;;
13891;SDS011;7016;48.172;8.058;2022-08-25T15:08:52;2.58;;;1.50;;
13891;SDS011;7016;48.172;8.058;2022-08-25T15:11:35;2.13;;;1.60;;
13891;SDS011;7016;48.172;8.058;2022-08-25T15:14:06;2.47;;;1.35;;
13891;SDS011;7016;48.172;8.058;2022-08-25T15:16:35;2.55;;;1.45;;
13891;SDS011;7016;48.172;8.058;2022-08-25T15:19:07;2.65;;;1.30;;
13891;SDS011;7016;48.172;8.058;2022-08-25T15:21:38;4.65;;;1.60;;
13891;SDS011;7016;48.172;8.058;2022-08-25T15:24:05;3.30;;;1.35;;
13891;SDS011;7016;48.172;8.058;2022-08-25T15:26:34;2.28;;;1.45;;
13891;SDS011;7016;48.172;8.058;2022-08-25T15:29:23;8.57;;;1.50;;
13891;SDS011;7016;48.172;8.058;2022-08-25T15:31:53;3.50;;;1.48;;
13891;SDS011;7016;48.172;8.058;2022-08-25T15:34:19;2.55;;;1.48;;
13891;SDS011;7016;48.172;8.058;2022-08-25T15:36:45;1.67;;;1.30;;
13891;SDS011;7016;48.172;8.058;2022-08-25T15:39:11;2.17;;;1.40;;
13891;SDS011;7016;48.172;8.058;2022-08-25T15:41:37;2.05;;;1.50;;
13891;SDS011;7016;48.172;8.058;2022-08-25T15:44:03;3.72;;;1.70;;
13891;SDS011;7016;48.172;8.058;2022-08-25T15:46:30;2.15;;;1.58;;
13891;SDS011;7016;48.172;8.058;2022-08-25T15:49:03;1.70;;;1.40;;
13891;SDS011;7016;48.172;8.058;2022-08-25T15:51:29;2.17;;;1.63;;
13891;SDS011;7016;48.172;8.058;2022-08-25T15:53:55;3.83;;;1.40;;
13891;SDS011;7016;48.172;8.058;2022-08-25T15:56:21;2.95;;;1.73;;
13891;SDS011;7016;48.172;8.058;2022-08-25T15:58:48;1.52;;;1.33;;
13891;SDS011;7016;48.172;8.058;2022-08-25T16:01:16;3.33;;;1.55;;
13891;SDS011;7016;48.172;8.058;2022-08-25T16:03:44;2.88;;;1.50;;
13891;SDS011;7016;48.172;8.058;2022-08-25T16:06:09;2.00;;;1.67;;
13891;SDS011;7016;48.172;8.058;2022-08-25T16:08:35;8.95;;;1.63;;
13891;SDS011;7016;48.172;8.058;2022-08-25T16:11:03;9.05;;;1.80;;
13891;SDS011;7016;48.172;8.058;2022-08-25T16:13:30;3.17;;;1.38;;
13891;SDS011;7016;48.172;8.058;2022-08-25T16:15:56;2.15;;;1.25;;
13891;SDS011;7016;48.172;8.058;2022-08-25T16:18:24;3.58;;;1.42;;
13891;SDS011;7016;48.172;8.058;2022-08-25T16:20:50;1.98;;;1.30;;
13891;SDS011;7016;48.172;8.058;2022-08-25T16:23:17;2.92;;;1.77;;
13891;SDS011;7016;48.172;8.058;2022-08-25T16:25:44;3.85;;;1.52;;
13891;SDS011;7016;48.172;8.058;2022-08-25T16:28:12;4.65;;;1.70;;
13891;SDS011;7016;48.172;8.058;2022-08-25T16:30:38;3.63;;;1.65;;
13891;SDS011;7016;48.172;8.058;2022-08-25T16:33:09;2.47;;;1.38;;
13891;SDS011;7016;48.172;8.058;2022-08-25T16:35:35;1.40;;;1.20;;
13891;SDS011;7016;48.172;8.058;2022-08-25T16:38:00;2.25;;;1.30;;
13891;SDS011;7016;48.172;8.058;2022-08-25T16:40:28;1.90;;;1.00;;
13891;SDS011;7016;48.172;8.058;2022-08-25T16:42:55;2.78;;;1.30;;
13891;SDS011;7016;48.172;8.058;2022-08-25T16:45:21;1.80;;;1.10;;
13891;SDS011;7016;48.172;8.058;2022-08-25T16:47:47;1.60;;;1.27;;
13891;SDS011;7016;48.172;8.058;2022-08-25T16:50:14;2.85;;;1.08;;
13891;SDS011;7016;48.172;8.058;2022-08-25T16:52:43;2.92;;;1.13;;
13891;SDS011;7016;48.172;8.058;2022-08-25T16:55:28;1.73;;;1.10;;
13891;SDS011;7016;48.172;8.058;2022-08-25T16:57:57;3.03;;;1.38;;
13891;SDS011;7016;48.172;8.058;2022-08-25T17:00:25;1.80;;;1.20;;
13891;SDS011;7016;48.172;8.058;2022-08-25T17:02:59;1.38;;;1.20;;
13891;SDS011;7016;48.172;8.058;2022-08-25T17:05:29;1.95;;;1.10;;
13891;SDS011;7016;48.172;8.058;2022-08-25T17:07:59;1.67;;;1.23;;
13891;SDS011;7016;48.172;8.058;2022-08-25T17:10:43;2.92;;;1.23;;
13891;SDS011;7016;48.172;8.058;2022-08-25T17:13:09;3.42;;;1.67;;
13891;SDS011;7016;48.172;8.058;2022-08-25T17:15:40;5.55;;;1.45;;
13891;SDS011;7016;48.172;8.058;2022-08-25T17:18:08;2.53;;;1.52;;